Date,TemperatureHighF,TemperatureAvgF,TemperatureLowF,DewpointHighF,DewpointAvgF,DewpointLowF,HumidityHigh,HumidityAvg,HumidityLow,PressureMaxIn,PressureMinIn,WindSpeedMaxMPH,WindSpeedAvgMPH,GustSpeedMaxMPH,PrecipitationSumIn
2014-2-6,28,23,16,14,12,9,80,61,50,30.29,30.10,5,2,7,0.15
2014-2-7,21,18,14,12,11,10,83,73,63,30.28,30.27,6,2,6,0.00
2014-2-8,23,20,12,10,7,4,68,58,48,30.30,30.15,2,0,2,0.00
2014-2-9,23,20,11,17,14,6,88,77,58,30.14,29.94,2,0,3,0.00
2014-2-10,27,22,10,16,7,3,86,56,36,30.25,30.00,8,3,10,0.11
2014-2-11,24,17,7,4,2,0,75,52,35,30.42,30.27,8,2,10,0.01
2014-2-12,25,14,-2,4,1,-7,79,58,37,30.51,30.35,3,1,3,0.00
2014-2-19,45,39,27,35,31,23,88,73,62,30.05,29.63,9,2,13,0.25
2014-2-20,49,41,26,30,26,21,92,56,33,30.21,29.91,6,2,8,0.01
2014-2-21,49,38,29,47,34,27,96,84,66,29.90,29.60,8,1,12,0.51
2014-2-22,54,44,32,25,14,-100,66,36,22,29.95,29.88,12,4,19,0.01
2014-2-23,50,44,31,29,27,24,76,51,42,29.98,29.83,6,3,8,0.00
2014-2-24,37,30,25,26,11,7,66,45,37,30.06,29.83,14,4,18,0.00
2014-2-25,31,24,18,18,10,7,72,57,41,30.04,29.92,10,3,16,0.00
2014-4-20,67,55,39,34,25,-100,72,35,25,30.41,30.25,5,2,12,0.00
2014-4-21,74,55,34,33,28,20,83,43,15,30.26,29.81,5,2,12,0.00
2014-4-22,66,54,46,53,42,31,92,67,41,29.80,29.51,7,1,11,0.05
2014-4-23,54,47,37,34,32,28,74,56,45,29.92,29.61,13,5,17,0.01
2014-4-24,61,48,34,28,18,13,72,35,16,30.04,29.93,13,4,18,0.00
2014-4-25,67,49,35,45,29,18,93,51,19,30.01,29.71,11,2,18,0.24
2014-4-26,66,52,43,46,43,33,98,77,41,29.91,29.66,7,3,11,0.30
2014-5-13,78,78,78,55,55,55,45,45,45,30.07,30.07,2,2,7,0.00
2014-5-14,70,60,50,61,53,46,87,77,66,30.24,30.11,3,1,11,0.02
2014-5-15,80,71,65,66,62,59,83,73,60,30.14,29.91,13,3,20,0.01
2014-5-16,73,62,53,64,55,47,99,79,66,29.91,29.74,19,4,19,1.93
2014-5-17,63,54,46,48,41,35,95,63,35,30.14,29.89,7,2,13,0.01
2014-5-18,62,50,40,44,36,-100,97,68,32,30.22,30.14,6,1,10,0.00
2014-5-27,84,69,59,68,62,55,100,80,52,29.93,29.81,14,2,22,0.35
2014-5-28,81,70,65,68,65,56,100,87,43,29.89,29.80,5,1,8,0.06
2014-5-29,57,56,55,50,48,47,78,76,73,30.18,30.11,1,1,5,0.00
2014-5-30,74,60,55,54,51,47,95,77,38,30.13,30.06,6,3,7,0.00
2014-5-31,75,61,48,51,45,37,96,61,25,30.24,30.12,5,1,12,0.00
2014-6-1,77,64,61,54,36,-100,70,45,37,30.33,30.19,5,2,7,0.00
2014-6-2,84,75,66,62,57,49,74,55,41,30.21,29.99,5,2,9,0.00
2014-6-3,81,70,62,66,64,61,98,82,58,30.00,29.79,8,2,11,0.38
2014-6-4,79,69,59,63,57,50,100,71,37,29.89,29.76,3,1,5,0.08
2014-6-5,74,70,61,61,54,49,100,60,43,29.75,29.70,7,2,8,0.54
2014-6-6,74,65,54,53,50,48,86,60,44,29.97,29.82,6,2,8,0.00
2014-6-7,85,67,53,57,53,51,100,67,31,30.04,29.91,3,1,6,0.00
2014-6-8,83,66,54,62,49,-100,100,65,37,29.96,29.80,8,2,10,0.07
2014-6-9,75,70,65,66,64,62,100,83,71,29.91,29.83,3,1,5,0.19
2014-6-10,83,74,67,67,66,64,93,78,58,29.94,29.88,3,1,10,0.00
2014-6-11,72,69,66,67,63,60,85,82,80,30.01,29.95,3,1,8,0.04
2014-6-12,73,70,66,65,63,61,85,79,75,29.98,29.88,3,1,8,0.31
2014-6-13,78,74,69,69,67,65,100,80,72,29.83,29.71,6,2,6,0.09
2014-6-14,65,65,65,65,58,50,100,80,59,30.07,29.83,1,0,6,0.01
2014-6-15,76,53,53,58,34,-100,91,80,49,30.11,30.07,3,1,9,0.00
2014-6-16,83,65,56,69,60,56,100,85,52,30.14,29.99,1,0,4,0.01
2014-6-17,88,78,68,69,68,68,99,76,52,30.05,29.88,6,3,7,0.00
2014-6-18,85,75,67,66,64,60,90,70,43,29.95,29.89,2,1,3,0.00
2014-6-19,68,68,68,68,68,68,99,99,99,29.97,29.97,2,2,2,0.00
2014-6-20,68,60,53,53,50,48,84,72,59,30.07,29.94,0,0,1,0.00
2014-6-21,66,66,66,40,40,40,39,39,39,29.95,29.89,3,3,6,0.00
2014-6-22,83,57,58,57,23,-100,96,46,34,29.96,29.89,2,0,6,0.00
2014-6-24,76,72,67,63,60,56,67,66,64,30.07,29.96,7,4,7,0.00
2014-6-25,83,83,83,68,68,68,60,60,60,29.80,29.80,8,8,8,0.00
2014-7-16,72,69,66,61,60,59,85,74,63,29.84,29.78,0,0,1,0.00
2014-7-17,61,61,60,57,56,55,86,84,82,29.94,29.91,0,0,0,0.00
2014-7-18,77,65,56,55,54,53,92,72,44,30.24,30.14,1,0,5,0.00
2014-7-19,75,66,61,58,57,56,86,75,55,30.21,30.14,2,1,2,0.00
2014-7-20,65,32,65,63,32,63,94,92,90,30.15,30.14,1,1,1,0.00
2014-7-21,65,63,62,61,61,61,95,92,88,30.11,30.10,0,0,0,0.00
2014-7-22,76,70,65,69,66,64,100,89,75,30.17,30.03,2,1,5,0.00
2014-7-27,-200,0,200,-100,0,200,0,0,100,29.85,29.85,2,2,3,0.00
2014-7-28,66,66,66,66,66,66,100,100,100,29.56,29.56,0,0,1,0.00
2014-7-29,71,60,55,56,53,48,99,84,44,29.91,29.80,4,1,6,0.01
2014-7-30,70,65,61,58,56,55,81,75,65,30.04,30.00,1,0,2,0.00
2014-7-31,-200,0,200,-100,0,200,68,64,60,30.07,30.07,2,2,14,0.00
2014-8-1,78,71,68,66,63,62,83,76,67,30.16,30.15,2,1,2,0.00
2014-9-25,67,58,54,57,54,51,95,87,66,30.44,30.24,3,0,7,0.02
2014-9-26,77,61,51,57,53,51,100,81,41,30.28,30.17,6,1,8,0.01
2014-9-27,82,62,50,61,55,50,100,81,39,30.27,30.16,3,0,6,0.00
2014-9-28,82,63,54,63,55,50,100,79,33,30.20,30.02,6,1,7,0.00
2014-9-29,77,64,56,63,58,55,100,84,53,30.01,29.88,2,0,5,0.00
2014-9-30,74,64,56,64,60,56,100,86,65,29.93,29.84,2,0,6,0.00
2014-10-1,75,64,58,63,59,56,98,83,53,30.07,29.95,5,1,6,0.06
2014-11-19,29,24,16,11,6,1,60,46,38,30.25,29.93,8,4,12,0.00
2014-11-20,38,32,26,18,13,6,51,44,37,30.01,29.84,8,4,19,0.00
2014-11-21,34,27,21,11,9,6,65,48,31,30.45,30.07,10,4,14,0.00
2014-11-22,40,30,13,22,14,9,84,49,28,30.45,30.00,8,2,11,0.00
2014-11-23,56,46,32,43,29,23,68,55,30,30.11,29.85,8,2,12,0.00
2014-11-24,71,66,59,57,53,48,87,63,51,29.69,29.44,13,6,21,0.09
2014-11-25,52,47,35,30,29,28,82,51,40,30.13,29.87,9,4,18,0.00
2014-11-26,38,34,31,33,31,30,98,91,72,30.16,29.90,2,0,7,0.04
2014-11-27,35,31,25,31,28,23,98,90,78,30.06,29.91,7,1,9,0.15
2014-11-28,33,28,19,28,20,13,95,73,43,30.23,30.06,3,1,12,0.02
2014-11-29,34,27,18,28,20,15,89,71,61,30.27,30.08,5,1,7,0.01
2014-11-30,42,38,35,36,32,27,85,78,69,30.08,29.98,3,0,6,0.11
2014-12-1,37,36,36,23,23,23,60,59,57,30.47,30.45,3,2,3,0.00
2014-12-2,35,32,28,33,25,17,97,79,56,30.57,30.23,5,1,7,0.10
2014-12-3,41,35,32,37,34,23,100,95,59,30.22,29.96,6,1,8,0.18
2014-12-4,37,33,28,26,24,22,86,69,54,30.40,30.22,12,2,12,0.01
2014-12-5,37,34,27,35,31,22,98,86,74,30.49,30.29,3,1,7,0.17
2014-12-6,41,37,36,41,37,34,100,97,83,30.29,30.07,3,0,8,0.40
2014-12-7,41,33,27,24,16,10,68,52,29,30.59,30.35,14,2,14,0.02
2014-12-8,33,28,20,27,18,4,83,66,38,30.61,30.28,11,2,11,0.00
2014-12-9,39,36,32,38,34,27,95,92,79,30.27,29.82,3,1,5,0.11
2014-12-10,39,30,28,34,24,24,89,67,65,29.82,29.70,12,5,16,0.03
2014-12-11,32,29,27,29,26,24,93,87,82,29.87,29.68,9,3,11,0.06
2014-12-12,36,33,29,30,25,23,91,75,64,30.03,29.87,8,2,8,0.03
2014-12-13,37,34,30,30,28,24,83,76,71,30.04,29.94,9,2,12,0.01
2014-12-14,43,38,34,35,31,27,85,76,69,30.00,29.90,4,1,10,0.01
2014-12-15,41,40,38,34,33,32,82,77,74,30.07,29.99,6,1,7,0.00
2014-12-16,45,42,38,42,38,33,97,86,74,30.02,29.81,6,1,10,0.05
2014-12-17,48,42,35,41,35,22,98,78,56,29.94,29.81,18,4,73,0.05
2014-12-18,37,35,33,27,24,21,71,63,55,30.04,29.94,10,4,13,0.00
2014-12-19,37,34,32,27,23,20,79,64,52,30.19,29.98,8,3,13,0.00
2014-12-20,35,27,30,22,17,19,67,61,57,30.26,30.16,5,1,7,0.00
2014-12-21,36,30,23,23,21,19,85,69,53,30.31,30.23,8,1,8,0.00
2014-12-22,40,29,19,33,24,17,95,83,61,30.30,30.09,3,0,7,0.02
2014-12-23,49,42,34,46,40,33,100,93,84,30.08,29.98,3,1,6,0.11
2014-12-24,60,49,45,56,48,42,100,96,83,29.98,29.40,6,0,21,0.25
2014-12-25,60,45,35,55,36,28,91,69,57,30.13,29.41,65,6,65,0.12
2014-12-26,48,35,27,31,28,24,93,76,48,30.27,30.12,5,1,9,0.01
2014-12-27,55,38,27,38,31,26,96,76,43,30.26,29.98,5,1,5,0.00
2014-12-28,49,44,38,43,37,25,96,76,58,30.08,29.82,5,1,11,0.01
2014-12-29,41,33,27,27,22,18,89,68,41,30.23,30.09,6,1,7,0.01
2014-12-30,34,30,26,23,13,8,81,52,34,30.39,30.23,11,2,12,0.00
2014-12-31,30,24,17,13,8,4,66,51,36,30.34,30.10,12,3,16,0.00
2015-1-1,39,28,18,16,9,5,57,45,27,30.09,29.89,13,4,19,0.00
2015-1-2,39,33,24,20,18,14,80,56,43,30.41,29.97,8,2,16,0.00